createdAt,value
2022-12-26T00:02:16.200Z,266.03
2022-12-26T00:05:03.264Z,27.87
2022-12-26T00:07:50.243Z,34.40
2022-12-26T00:10:49.549Z,29.80
2022-12-26T00:13:38.208Z,206.33
2022-12-26T00:16:28.740Z,38.43
2022-12-26T00:19:15.901Z,67.40
2022-12-26T00:22:02.919Z,43.87
2022-12-26T00:24:49.910Z,228.60
2022-12-26T00:27:36.848Z,52.13
2022-12-26T00:30:23.923Z,45.27
2022-12-26T00:33:10.996Z,134.37
2022-12-26T00:36:07.655Z,138.80
2022-12-26T00:38:54.628Z,41.63
2022-12-26T00:41:41.695Z,45.00
2022-12-26T00:44:28.732Z,69.27
2022-12-26T00:47:15.849Z,213.87
2022-12-26T00:50:13.053Z,328.47
2022-12-26T00:53:02.211Z,91.50
2022-12-26T00:55:49.600Z,43.47
2022-12-26T00:58:37.217Z,50.03
2022-12-26T01:01:24.391Z,47.43
2022-12-26T01:04:11.502Z,64.00
2022-12-26T01:06:58.559Z,62.13
2022-12-26T01:09:45.561Z,39.50
2022-12-26T01:12:32.673Z,68.90
2022-12-26T01:15:20.337Z,33.63
2022-12-26T01:18:07.378Z,33.63
2022-12-26T01:21:06.140Z,40.50
2022-12-26T01:23:53.120Z,31.43
2022-12-26T01:26:40.175Z,39.47
2022-12-26T01:29:27.194Z,33.70
2022-12-26T01:32:14.252Z,48.97
2022-12-26T01:35:01.274Z,34.10
2022-12-26T01:37:48.289Z,27.83
2022-12-26T01:40:35.290Z,31.87
2022-12-26T01:43:22.243Z,39.43
2022-12-26T01:46:09.379Z,25.27
2022-12-26T01:49:00.867Z,39.93
2022-12-26T01:51:54.021Z,39.43
2022-12-26T01:54:45.840Z,40.77
2022-12-26T01:57:40.690Z,42.37
2022-12-26T02:00:28.070Z,51.20
2022-12-26T02:03:33.623Z,54.13
2022-12-26T02:06:21.330Z,56.93
2022-12-26T02:09:09.497Z,60.03
2022-12-26T02:12:36.041Z,52.70
2022-12-26T02:15:13.617Z,53.27
2022-12-26T02:18:00.659Z,52.43
2022-12-26T02:21:04.226Z,56.00
2022-12-26T02:24:06.375Z,60.93
2022-12-26T02:27:02.496Z,54.53
2022-12-26T02:30:01.837Z,57.53
2022-12-26T02:33:10.437Z,52.60
2022-12-26T02:36:10.164Z,54.40
2022-12-26T02:39:44.238Z,58.50
2022-12-26T02:42:24.149Z,56.63
2022-12-26T02:45:48.470Z,56.03
2022-12-26T02:48:52.623Z,48.63
2022-12-26T02:52:19.180Z,44.53
2022-12-26T02:55:47.470Z,54.57
2022-12-26T02:59:14.874Z,53.37
2022-12-26T03:02:23.546Z,50.03
2022-12-26T03:05:50.880Z,52.50
2022-12-26T03:09:16.270Z,50.23
2022-12-26T03:12:26.871Z,47.17
2022-12-26T03:15:17.675Z,46.30
2022-12-26T03:18:07.183Z,43.07
2022-12-26T03:20:54.890Z,44.17
2022-12-26T03:23:44.932Z,52.13
2022-12-26T03:26:42.264Z,52.63
2022-12-26T03:29:47.808Z,51.27
2022-12-26T03:32:43.831Z,46.53
2022-12-26T03:35:34.028Z,50.77
2022-12-26T03:38:30.393Z,48.23
2022-12-26T03:42:08.199Z,54.80
2022-12-26T03:45:27.559Z,54.77
2022-12-26T03:48:51.203Z,57.77
2022-12-26T03:52:20.477Z,56.20
2022-12-26T03:55:44.102Z,54.57
2022-12-26T03:59:15.682Z,64.57
2022-12-26T04:02:25.804Z,61.13
2022-12-26T04:05:34.870Z,55.20
2022-12-26T04:08:47.766Z,55.57
2022-12-26T04:11:56.823Z,67.47
2022-12-26T04:15:13.426Z,62.13
2022-12-26T04:18:38.944Z,53.23
2022-12-26T04:22:12.043Z,51.80
2022-12-26T04:25:50.840Z,62.43
2022-12-26T04:28:56.815Z,52.17
2022-12-26T04:32:10.754Z,63.17
2022-12-26T04:35:26.252Z,60.43
2022-12-26T04:38:35.221Z,72.17
2022-12-26T04:41:43.851Z,62.33
2022-12-26T04:44:32.948Z,55.97
2022-12-26T04:47:20.130Z,61.80
2022-12-26T04:50:13.646Z,54.90
2022-12-26T04:53:01.102Z,62.67
2022-12-26T04:55:48.476Z,53.20
2022-12-26T04:58:35.415Z,57.27
2022-12-26T05:01:41.086Z,49.17
2022-12-26T05:04:47.539Z,52.73
2022-12-26T05:07:56.240Z,53.47
2022-12-26T05:10:43.167Z,47.97
2022-12-26T05:13:30.131Z,48.47
2022-12-26T05:16:35.591Z,50.03
2022-12-26T05:19:40.797Z,42.13
2022-12-26T05:22:49.860Z,50.60
2022-12-26T05:25:59.219Z,44.37
2022-12-26T05:28:53.006Z,44.43
2022-12-26T05:31:40.189Z,48.53
2022-12-26T05:34:27.275Z,42.43
2022-12-26T05:37:14.285Z,43.37
2022-12-26T05:40:01.651Z,50.50
2022-12-26T05:42:48.722Z,49.17
2022-12-26T05:45:35.784Z,43.70
2022-12-26T05:48:22.783Z,41.90
2022-12-26T05:51:09.835Z,52.57
2022-12-26T05:53:56.885Z,45.87
2022-12-26T05:56:49.090Z,48.57
2022-12-26T05:59:36.512Z,40.30
2022-12-26T06:02:23.544Z,42.60
2022-12-26T06:05:10.796Z,39.93
2022-12-26T06:07:58.374Z,39.33
2022-12-26T06:10:45.380Z,41.40
2022-12-26T06:13:32.476Z,42.67
2022-12-26T06:16:19.899Z,35.13
2022-12-26T06:19:06.889Z,39.93
2022-12-26T06:21:53.941Z,36.80
2022-12-26T06:24:40.926Z,42.37
2022-12-26T06:27:28.374Z,39.50
2022-12-26T06:30:15.544Z,43.77
2022-12-26T06:33:02.521Z,47.20
2022-12-26T06:35:49.571Z,48.40
2022-12-26T06:38:37.075Z,47.83
2022-12-26T06:41:25.387Z,55.53
2022-12-26T06:44:17.969Z,57.23
2022-12-26T06:47:05.681Z,57.03
2022-12-26T06:49:52.867Z,57.27
2022-12-26T06:52:39.928Z,66.60
2022-12-26T06:55:26.943Z,66.83
2022-12-26T06:58:14.555Z,61.70
2022-12-26T07:01:10.699Z,66.87
2022-12-26T07:03:58.547Z,74.43
2022-12-26T07:06:45.495Z,56.70
2022-12-26T07:09:34.017Z,64.33
2022-12-26T07:12:22.009Z,69.23
2022-12-26T07:15:10.260Z,66.63
2022-12-26T07:17:57.267Z,76.33
2022-12-26T07:20:44.271Z,66.50
2022-12-26T07:23:31.899Z,68.63
2022-12-26T07:26:19.358Z,73.17
2022-12-26T07:29:06.275Z,72.50
2022-12-26T07:31:53.365Z,72.50
2022-12-26T07:34:42.016Z,68.53
2022-12-26T07:37:28.990Z,77.57
2022-12-26T07:40:15.995Z,74.47
2022-12-26T07:43:03.075Z,88.43
2022-12-26T07:45:50.855Z,94.70
2022-12-26T07:48:37.804Z,91.47
2022-12-26T07:51:24.955Z,82.43
2022-12-26T07:54:12.211Z,88.47
2022-12-26T07:57:21.802Z,92.57
2022-12-26T08:00:07.078Z,90.77
2022-12-26T08:02:54.246Z,79.63
2022-12-26T08:05:45.414Z,81.77
2022-12-26T08:08:32.418Z,71.83
2022-12-26T08:11:22.697Z,75.00
2022-12-26T08:14:12.384Z,72.37
2022-12-26T08:16:59.412Z,66.70
2022-12-26T08:19:46.517Z,73.07
2022-12-26T08:22:33.566Z,73.30
2022-12-26T08:25:22.189Z,62.50
2022-12-26T08:28:09.862Z,66.33
2022-12-26T08:30:56.896Z,60.83
2022-12-26T08:33:43.973Z,57.60
2022-12-26T08:36:30.909Z,53.43
2022-12-26T08:39:18.914Z,53.90
2022-12-26T08:42:05.922Z,48.83
2022-12-26T08:44:52.919Z,43.97
2022-12-26T08:47:39.929Z,40.70
2022-12-26T08:50:26.886Z,44.23
2022-12-26T08:53:13.985Z,43.20
2022-12-26T08:56:01.391Z,33.57
2022-12-26T08:58:48.926Z,33.07
2022-12-26T09:01:36.029Z,30.47
2022-12-26T09:04:23.116Z,31.33
2022-12-26T09:07:10.219Z,30.33
2022-12-26T09:09:57.143Z,30.50
2022-12-26T09:12:44.113Z,25.90
2022-12-26T09:15:31.228Z,31.57
2022-12-26T09:18:18.208Z,28.00
2022-12-26T09:21:07.551Z,29.73
2022-12-26T09:24:00.142Z,30.57
2022-12-26T09:26:48.024Z,28.40
2022-12-26T09:29:35.000Z,29.10
2022-12-26T09:32:21.962Z,27.37
2022-12-26T09:35:09.241Z,23.97
2022-12-26T09:37:56.195Z,25.53
2022-12-26T09:41:36.811Z,26.70
2022-12-26T09:44:51.905Z,28.37
2022-12-26T09:48:21.001Z,29.53
2022-12-26T09:51:10.052Z,28.80
2022-12-26T09:54:00.466Z,27.10
2022-12-26T09:57:07.311Z,30.03
2022-12-26T09:59:58.630Z,30.07
2022-12-26T10:02:49.912Z,26.47
2022-12-26T10:05:48.979Z,23.83
2022-12-26T10:08:54.611Z,24.93
2022-12-26T10:12:06.512Z,25.13
2022-12-26T10:15:03.648Z,25.33
2022-12-26T10:18:05.325Z,23.97
2022-12-26T10:21:05.220Z,25.30
2022-12-26T10:23:58.927Z,23.30
2022-12-26T10:26:51.434Z,22.87
2022-12-26T10:30:02.166Z,21.03
2022-12-26T10:32:58.334Z,24.37
2022-12-26T10:35:46.999Z,19.00
2022-12-26T10:38:42.011Z,21.23
2022-12-26T10:41:43.322Z,16.83
2022-12-26T10:44:30.336Z,18.17
2022-12-26T10:47:37.826Z,16.17
2022-12-26T10:50:30.593Z,16.43
2022-12-26T10:53:17.699Z,12.07
2022-12-26T10:56:06.238Z,10.33
2022-12-26T10:59:02.342Z,9.77
2022-12-26T11:01:50.537Z,10.73
2022-12-26T11:05:11.200Z,8.47
2022-12-26T11:07:54.655Z,8.10
2022-12-26T11:10:48.034Z,9.80
2022-12-26T11:13:40.376Z,7.83
2022-12-26T11:16:32.203Z,10.07
2022-12-26T11:19:31.402Z,9.37
2022-12-26T11:22:29.697Z,8.63
2022-12-26T11:25:28.256Z,9.37
2022-12-26T11:28:35.412Z,7.37
2022-12-26T11:31:26.994Z,5.97
2022-12-26T11:34:48.015Z,8.03
2022-12-26T11:37:42.519Z,5.03
2022-12-26T11:40:39.331Z,7.17
2022-12-26T11:43:27.357Z,6.67
2022-12-26T11:46:14.658Z,5.33
2022-12-26T11:49:02.443Z,4.57
2022-12-26T11:51:57.133Z,6.40
2022-12-26T11:54:51.246Z,5.67
2022-12-26T11:57:38.242Z,5.37
2022-12-26T12:00:26.463Z,5.90
2022-12-26T12:03:17.373Z,4.57
2022-12-26T12:06:20.651Z,3.60
2022-12-26T12:09:44.864Z,4.70
2022-12-26T12:13:01.424Z,6.00
2022-12-26T12:15:55.872Z,4.60
2022-12-26T12:19:11.987Z,3.70
2022-12-26T12:22:30.070Z,6.47
2022-12-26T12:25:35.922Z,4.00
2022-12-26T12:28:35.206Z,6.73
2022-12-26T12:31:59.684Z,4.23
2022-12-26T12:34:57.019Z,4.63
2022-12-26T12:37:50.769Z,4.87
2022-12-26T12:41:10.654Z,6.07
2022-12-26T12:44:28.090Z,6.23
2022-12-26T12:47:27.757Z,8.53
2022-12-26T12:50:29.410Z,5.77
2022-12-26T12:53:28.139Z,4.50
2022-12-26T12:56:45.081Z,4.63
2022-12-26T12:59:53.682Z,6.43
2022-12-26T13:03:12.644Z,6.27
2022-12-26T13:06:11.291Z,7.27
2022-12-26T13:09:15.886Z,5.53
2022-12-26T13:12:07.049Z,5.20
2022-12-26T13:15:06.463Z,8.07
2022-12-26T13:18:15.558Z,5.67
2022-12-26T13:21:10.295Z,5.40
2022-12-26T13:24:30.854Z,4.30
2022-12-26T13:27:31.312Z,5.27
2022-12-26T13:30:18.939Z,4.53
2022-12-26T13:33:06.505Z,5.33
2022-12-26T13:36:05.464Z,5.63
2022-12-26T13:38:58.376Z,7.97
2022-12-26T13:42:36.072Z,4.93
2022-12-26T13:45:38.133Z,6.37
2022-12-26T13:48:30.400Z,8.20
2022-12-26T13:51:41.881Z,6.60
2022-12-26T13:54:31.107Z,4.87
2022-12-26T13:57:40.293Z,4.80
2022-12-26T14:00:57.680Z,7.27
2022-12-26T14:03:48.875Z,5.47
2022-12-26T14:07:05.323Z,4.43
2022-12-26T14:10:07.417Z,10.97
2022-12-26T14:13:20.317Z,8.53
2022-12-26T14:16:11.164Z,6.37
2022-12-26T14:19:20.057Z,11.67
2022-12-26T14:22:30.210Z,7.73
2022-12-26T14:25:29.363Z,8.20
2022-12-26T14:28:38.371Z,7.67
2022-12-26T14:31:25.289Z,7.90
2022-12-26T14:34:18.292Z,8.03
2022-12-26T14:37:43.123Z,4.67
2022-12-26T14:40:39.089Z,7.50
2022-12-26T14:43:35.036Z,7.57
2022-12-26T14:46:31.267Z,9.70
2022-12-26T14:49:23.663Z,9.50
2022-12-26T14:52:25.913Z,7.53
2022-12-26T14:55:50.652Z,10.67
2022-12-26T14:58:45.765Z,6.73
2022-12-26T15:01:32.775Z,5.67
2022-12-26T15:04:42.474Z,5.23
2022-12-26T15:07:59.916Z,10.67
2022-12-26T15:10:49.690Z,4.87
2022-12-26T15:13:48.776Z,8.77
2022-12-26T15:17:07.447Z,5.43
2022-12-26T15:20:09.634Z,5.20
2022-12-26T15:22:59.592Z,8.37
2022-12-26T15:26:04.854Z,5.57
2022-12-26T15:29:29.843Z,7.67
2022-12-26T15:32:49.252Z,7.77
2022-12-26T15:35:50.573Z,7.37
2022-12-26T15:38:48.514Z,8.67
2022-12-26T15:41:44.397Z,10.03
2022-12-26T15:45:12.620Z,7.20
2022-12-26T15:48:26.433Z,13.17
2022-12-26T15:51:18.157Z,8.17
2022-12-26T15:54:20.452Z,6.97
2022-12-26T15:57:44.157Z,10.37
2022-12-26T16:00:33.313Z,11.57
2022-12-26T16:03:45.469Z,11.17
2022-12-26T16:06:52.310Z,10.00
2022-12-26T16:09:45.020Z,9.50
2022-12-26T16:12:35.845Z,10.03
2022-12-26T16:15:25.180Z,8.10
2022-12-26T16:18:35.551Z,9.07
2022-12-26T16:21:45.502Z,6.30
2022-12-26T16:24:35.439Z,12.37
2022-12-26T16:27:24.764Z,10.73
2022-12-26T16:30:24.027Z,11.37
2022-12-26T16:33:14.781Z,10.70
2022-12-26T16:36:01.924Z,14.20
2022-12-26T16:38:49.705Z,12.97
2022-12-26T16:41:56.384Z,11.43
2022-12-26T16:44:44.512Z,15.13
2022-12-26T16:47:32.698Z,12.53
2022-12-26T16:50:22.938Z,9.70
2022-12-26T16:53:13.119Z,10.30
2022-12-26T16:56:31.231Z,8.50
2022-12-26T16:59:24.389Z,8.93
2022-12-26T17:02:19.400Z,8.53
2022-12-26T17:05:20.971Z,10.17
2022-12-26T17:08:14.847Z,13.77
2022-12-26T17:11:01.880Z,9.07
2022-12-26T17:13:53.856Z,9.23
2022-12-26T17:16:40.985Z,8.77
2022-12-26T17:19:31.814Z,11.37
2022-12-26T17:22:34.209Z,10.50
2022-12-26T17:25:30.405Z,10.97
2022-12-26T17:28:23.334Z,7.87
2022-12-26T17:31:31.251Z,11.50
2022-12-26T17:34:25.455Z,9.87
2022-12-26T17:37:23.660Z,19.60
2022-12-26T17:40:13.847Z,11.97
2022-12-26T17:43:13.229Z,12.93
2022-12-26T17:46:01.353Z,7.73
2022-12-26T17:48:48.644Z,10.50
2022-12-26T17:51:36.438Z,11.93
2022-12-26T17:54:23.635Z,8.13
2022-12-26T17:57:18.331Z,13.70
2022-12-26T18:00:36.544Z,11.83
2022-12-26T18:03:26.753Z,9.93
2022-12-26T18:06:19.239Z,9.83
2022-12-26T18:09:12.465Z,12.43
2022-12-26T18:12:02.165Z,8.43
2022-12-26T18:14:54.600Z,16.13
2022-12-26T18:17:45.932Z,8.70
2022-12-26T18:20:32.999Z,9.93
2022-12-26T18:23:20.381Z,10.87
2022-12-26T18:26:19.990Z,13.93
2022-12-26T18:29:08.301Z,13.13
2022-12-26T18:31:55.698Z,17.13
2022-12-26T18:34:42.958Z,12.53
2022-12-26T18:37:31.048Z,9.47
2022-12-26T18:40:26.915Z,10.23
2022-12-26T18:43:14.506Z,16.17
2022-12-26T18:46:01.734Z,13.00
2022-12-26T18:48:49.515Z,19.43
2022-12-26T18:51:39.625Z,12.27
2022-12-26T18:54:26.640Z,14.07
2022-12-26T18:57:19.709Z,14.10
2022-12-26T19:00:09.099Z,14.90
2022-12-26T19:02:57.244Z,14.90
2022-12-26T19:05:44.761Z,10.40
2022-12-26T19:08:32.716Z,12.07
2022-12-26T19:11:20.165Z,13.17
2022-12-26T19:14:12.300Z,13.00
2022-12-26T19:16:59.678Z,11.73
2022-12-26T19:19:50.991Z,9.93
2022-12-26T19:22:38.702Z,13.47
2022-12-26T19:25:27.032Z,14.73
2022-12-26T19:28:14.418Z,11.50
2022-12-26T19:31:13.229Z,11.47
2022-12-26T19:34:03.313Z,11.07
2022-12-26T19:36:51.067Z,12.53
2022-12-26T19:39:38.731Z,12.83
2022-12-26T19:42:26.745Z,10.40
2022-12-26T19:45:14.473Z,10.50
2022-12-26T19:48:02.149Z,14.40
2022-12-26T19:50:49.857Z,11.63
2022-12-26T19:53:37.726Z,9.87
2022-12-26T19:56:27.651Z,11.00
2022-12-26T19:59:17.491Z,7.30
2022-12-26T20:02:05.547Z,12.97
2022-12-26T20:04:53.352Z,13.47
2022-12-26T20:07:41.217Z,10.90
2022-12-26T20:10:30.986Z,20.93
2022-12-26T20:13:18.400Z,9.60
2022-12-26T20:16:37.331Z,13.13
2022-12-26T20:19:20.967Z,16.97
2022-12-26T20:22:08.849Z,12.97
2022-12-26T20:24:56.488Z,12.67
2022-12-26T20:27:46.961Z,14.67
2022-12-26T20:30:34.536Z,13.13
2022-12-26T20:33:22.119Z,9.77
2022-12-26T20:36:14.022Z,9.20
2022-12-26T20:39:06.166Z,12.57
2022-12-26T20:41:54.026Z,17.07
2022-12-26T20:44:41.898Z,12.10
2022-12-26T20:47:30.465Z,9.77
2022-12-26T20:50:25.112Z,14.03
2022-12-26T20:53:12.201Z,12.93
2022-12-26T20:55:59.461Z,16.40
2022-12-26T20:58:47.736Z,10.80
2022-12-26T21:01:36.038Z,9.03
2022-12-26T21:04:23.363Z,8.80
2022-12-26T21:07:10.618Z,11.10
2022-12-26T21:09:57.617Z,11.77
2022-12-26T21:12:44.915Z,13.10
2022-12-26T21:15:35.340Z,7.23
2022-12-26T21:18:25.362Z,8.93
2022-12-26T21:21:17.664Z,8.63
2022-12-26T21:24:11.346Z,13.50
2022-12-26T21:27:00.456Z,11.17
2022-12-26T21:29:47.744Z,14.07
2022-12-26T21:32:35.877Z,14.53
2022-12-26T21:35:26.894Z,11.87
2022-12-26T21:38:14.096Z,10.40
2022-12-26T21:41:01.496Z,7.20
2022-12-26T21:43:49.251Z,8.33
2022-12-26T21:46:36.418Z,13.40
2022-12-26T21:49:23.560Z,8.97
2022-12-26T21:52:10.911Z,10.97
2022-12-26T21:55:19.208Z,10.60
2022-12-26T21:58:07.826Z,11.00
2022-12-26T22:00:57.697Z,10.77
2022-12-26T22:04:03.555Z,8.53
2022-12-26T22:06:51.619Z,10.93
2022-12-26T22:09:40.348Z,10.37
2022-12-26T22:12:46.269Z,8.77
2022-12-26T22:15:51.711Z,10.27
2022-12-26T22:18:47.224Z,6.53
2022-12-26T22:21:34.998Z,10.57
2022-12-26T22:24:22.921Z,8.40
2022-12-26T22:27:10.247Z,9.20
2022-12-26T22:29:57.476Z,12.20
2022-12-26T22:32:45.137Z,13.43
2022-12-26T22:35:35.749Z,7.50
2022-12-26T22:38:23.870Z,7.90
2022-12-26T22:41:11.043Z,8.57
2022-12-26T22:43:58.328Z,7.73
2022-12-26T22:46:45.428Z,8.97
2022-12-26T22:49:32.537Z,6.83
2022-12-26T22:52:20.889Z,4.90
2022-12-26T22:55:08.673Z,12.07
2022-12-26T22:58:00.650Z,11.00
2022-12-26T23:00:49.715Z,11.00
2022-12-26T23:03:36.733Z,7.63
2022-12-26T23:06:34.640Z,10.50
2022-12-26T23:09:21.823Z,10.50
2022-12-26T23:12:29.512Z,6.27
2022-12-26T23:15:19.625Z,6.97
2022-12-26T23:18:43.371Z,10.03
2022-12-26T23:21:38.924Z,10.67
2022-12-26T23:24:28.711Z,5.50
2022-12-26T23:27:34.456Z,6.77
2022-12-26T23:30:24.254Z,9.40
2022-12-26T23:33:11.358Z,9.23
2022-12-26T23:35:58.745Z,11.70
2022-12-26T23:38:45.846Z,7.77
2022-12-26T23:41:33.036Z,7.30
2022-12-26T23:44:20.325Z,8.17
2022-12-26T23:47:08.930Z,5.50
2022-12-26T23:49:56.072Z,10.13
2022-12-26T23:52:44.094Z,8.27
2022-12-26T23:55:31.111Z,6.93
2022-12-26T23:58:18.217Z,12.57
